Time;durP1;ratioP1;P1;durP2;ratioP2;P2;SDS_P1;SDS_P2;PMS_P1;PMS_P2;Temp;Humidity;BMP_temperature;BMP_pressure;BME280_temperature;BME280_humidity;BME280_pressure;Samples;Min_cycle;Max_cycle;Signal;HPM_P1;HPM_P2
2023/08/17 00:03:34;;;;;;;7.03;4.85;;;;;;;20.87;83.11;98023.13;10268965;28;1403365;-67
2023/08/17 00:08:54;;;;;;;4.80;4.20;;;;;;;20.85;83.06;98008.88;10332137;28;20122;-67
2023/08/17 00:14:15;;;;;;;7.55;4.35;;;;;;;20.85;82.74;98011.72;10331917;28;20140;-67
2023/08/17 00:19:36;;;;;;;7.07;4.75;;;;;;;20.80;82.37;98008.03;10318527;28;20511;-67
2023/08/17 00:24:57;;;;;;;7.05;4.20;;;;;;;20.71;82.50;98003.47;10318278;28;20122;-66
2023/08/17 00:30:17;;;;;;;6.10;4.35;;;;;;;20.67;82.47;98003.34;10331601;28;20122;-67
2023/08/17 00:35:38;;;;;;;6.75;4.60;;;;;;;20.54;82.33;98007.91;10331754;28;20129;-67
2023/08/17 00:40:59;;;;;;;8.55;4.15;;;;;;;20.45;82.80;98011.13;10332413;28;20126;-68
2023/08/17 00:46:22;;;;;;;7.93;4.10;;;;;;;20.40;83.08;98003.84;10339643;28;20125;-67
2023/08/17 00:51:43;;;;;;;6.32;4.20;;;;;;;20.40;83.09;98001.75;10338831;28;20473;-67
2023/08/17 00:57:06;;;;;;;6.05;4.38;;;;;;;20.29;83.04;98005.63;10325167;28;20121;-68
2023/08/17 01:02:27;;;;;;;6.60;5.03;;;;;;;20.23;83.16;98013.91;10325135;28;20082;-67
2023/08/17 01:07:48;;;;;;;5.75;4.38;;;;;;;20.19;83.83;98008.84;10339111;28;20053;-68
2023/08/17 01:13:15;;;;;;;10.02;5.20;;;;;;;20.16;83.79;97995.97;10338185;28;20126;-67
2023/08/17 01:18:36;;;;;;;7.68;5.22;;;;;;;20.12;83.03;97998.69;10324581;28;20093;-67
2023/08/17 01:23:58;;;;;;;6.30;5.30;;;;;;;20.01;83.43;98002.56;10310610;28;20113;-67
2023/08/17 01:29:19;;;;;;;8.60;5.47;;;;;;;19.90;83.97;98012.09;10337350;28;20126;-66
2023/08/17 01:34:40;;;;;;;8.40;4.82;;;;;;;19.88;84.20;98009.16;10310114;28;20081;-68
2023/08/17 01:40:02;;;;;;;6.13;5.13;;;;;;;19.86;84.44;98000.59;10323759;28;20039;-67
2023/08/17 01:45:22;;;;;;;9.00;4.55;;;;;;;19.83;84.59;97987.75;10323159;28;20129;-67
2023/08/17 01:50:43;;;;;;;7.43;5.03;;;;;;;19.76;84.18;97963.44;10336748;28;20472;-67
2023/08/17 01:56:04;;;;;;;7.20;5.10;;;;;;;19.78;84.70;97966.31;10336099;28;20121;-67
2023/08/17 02:01:25;;;;;;;6.75;4.78;;;;;;;19.73;84.02;97969.03;10322473;28;20126;-67
2023/08/17 02:06:46;;;;;;;8.68;5.07;;;;;;;19.76;85.28;97957.75;10349691;28;20103;-67
2023/08/17 02:12:08;;;;;;;6.93;5.30;;;;;;;19.81;84.76;97953.69;10322211;28;20162;-66
2023/08/17 02:17:29;;;;;;;8.90;5.15;;;;;;;19.70;85.00;97953.34;10349517;28;20126;-67
2023/08/17 02:22:49;;;;;;;6.07;5.47;;;;;;;19.66;85.05;97955.28;10321823;28;20500;-67
2023/08/17 02:28:10;;;;;;;7.18;5.82;;;;;;;19.57;84.24;97953.56;10336005;28;20049;-66
2023/08/17 02:33:31;;;;;;;7.63;5.53;;;;;;;19.48;85.35;97952.50;10335772;28;20121;-67
2023/08/17 02:38:51;;;;;;;8.95;5.97;;;;;;;19.51;85.81;97959.00;10335001;28;20437;-67
2023/08/17 02:44:12;;;;;;;7.70;6.30;;;;;;;19.55;85.95;97967.63;10334236;28;20122;-67
2023/08/17 02:49:35;;;;;;;7.37;5.77;;;;;;;19.52;84.81;97957.59;10320969;28;20073;-67
2023/08/17 02:54:55;;;;;;;8.13;6.05;;;;;;;19.44;84.36;97980.69;10335380;28;20123;-67
2023/08/17 03:00:17;;;;;;;10.02;6.60;;;;;;;19.32;84.92;97971.75;10347731;28;20113;-67
2023/08/17 03:05:39;;;;;;;7.90;5.90;;;;;;;19.28;86.86;97989.28;10346805;28;20134;-67
2023/08/17 03:10:59;;;;;;;7.57;5.50;;;;;;;19.28;87.11;97977.97;10347461;28;20515;-67
2023/08/17 03:16:20;;;;;;;9.65;6.20;;;;;;;19.28;87.36;97980.06;10334482;28;20129;-66
2023/08/17 03:21:40;;;;;;;8.82;6.57;;;;;;;19.27;86.79;97979.34;10334116;28;20511;-67
2023/08/17 03:27:02;;;;;;;7.22;5.68;;;;;;;19.21;86.79;97998.94;10333169;28;20089;-67
2023/08/17 03:32:22;;;;;;;8.18;5.80;;;;;;;19.10;87.15;97997.09;10334005;28;20122;-67
2023/08/17 03:37:44;;;;;;;11.38;6.53;;;;;;;19.14;87.56;97978.19;10305765;28;20126;-68
2023/08/17 03:43:06;;;;;;;8.68;5.72;;;;;;;19.13;87.69;97979.56;10346456;28;20121;-67
2023/08/17 03:48:27;;;;;;;8.57;6.10;;;;;;;19.10;87.42;97975.19;10332275;28;20125;-67
2023/08/17 03:53:47;;;;;;;6.97;6.15;;;;;;;19.05;87.83;97993.41;10346261;28;20121;-67
2023/08/17 03:59:08;;;;;;;9.13;5.75;;;;;;;19.02;87.69;98000.38;10318738;28;20486;-67
2023/08/17 04:04:29;;;;;;;13.65;7.18;;;;;;;19.02;87.93;98006.03;10332904;28;20142;-67
2023/08/17 04:09:51;;;;;;;8.45;6.30;;;;;;;19.09;88.03;97992.81;10346130;28;20072;-67
2023/08/17 04:15:11;;;;;;;9.32;7.35;;;;;;;19.08;88.10;98009.06;10332115;28;20490;-67
2023/08/17 04:20:32;;;;;;;11.73;6.70;;;;;;;19.15;88.11;98007.19;10339619;28;20070;-67
2023/08/17 04:25:53;;;;;;;12.80;7.32;;;;;;;19.26;87.86;98019.63;10339516;28;20141;-66
2023/08/17 04:31:14;;;;;;;8.35;6.47;;;;;;;19.30;87.74;98017.69;10353639;28;20188;-67
2023/08/17 04:36:35;;;;;;;12.10;7.05;;;;;;;19.40;87.42;98025.84;10325807;28;20117;-66
2023/08/17 04:41:57;;;;;;;11.50;6.40;;;;;;;19.52;87.91;98037.59;10339250;28;20117;-66
2023/08/17 04:47:24;;;;;;;9.45;6.43;;;;;;;19.69;87.24;98039.69;10326504;28;20117;-66
2023/08/17 04:52:45;;;;;;;7.65;6.63;;;;;;;19.76;86.90;98039.88;10339766;28;20125;-67
2023/08/17 04:58:06;;;;;;;10.55;7.05;;;;;;;19.92;86.74;98038.38;10339751;28;20121;-67
2023/08/17 05:03:27;;;;;;;7.35;6.55;;;;;;;20.36;86.41;98049.06;10338070;28;20133;-67
2023/08/17 05:08:54;;;;;;;7.93;6.97;;;;;;;21.04;85.25;98044.22;10352138;28;20122;-66
2023/08/17 05:14:17;;;;;;;13.52;8.10;;;;;;;21.48;82.91;98052.66;10338147;28;20070;-67
2023/08/17 05:19:39;;;;;;;12.10;7.72;;;;;;;22.05;82.08;98057.13;10338011;28;20130;-68
2023/08/17 05:25:01;;;;;;;13.82;8.90;;;;;;;22.45;78.84;98075.28;10337793;28;20121;-67
2023/08/17 05:30:25;;;;;;;12.55;9.18;;;;;;;22.71;76.16;98072.38;10324063;28;20540;-67
2023/08/17 05:35:46;;;;;;;15.48;9.90;;;;;;;23.28;75.10;98061.66;10351245;28;20097;-68
2023/08/17 05:41:07;;;;;;;12.23;8.73;;;;;;;24.13;74.21;98077.69;10350729;28;20116;-67
2023/08/17 05:46:28;;;;;;;14.77;9.55;;;;;;;27.98;68.39;98075.81;10337759;28;20122;-68
2023/08/17 05:51:49;;;;;;;9.98;8.23;;;;;;;32.33;57.46;98076.69;10336626;28;20442;-67
2023/08/17 05:57:10;;;;;;;9.15;6.70;;;;;;;36.32;49.70;98081.78;10337508;28;20125;-67
2023/08/17 06:02:31;;;;;;;13.45;7.82;;;;;;;38.28;41.72;98081.69;10337188;28;20186;-69
2023/08/17 06:07:52;;;;;;;8.77;7.38;;;;;;;39.27;33.19;98085.72;10336810;28;20051;-70
2023/08/17 06:13:13;;;;;;;12.93;7.77;;;;;;;39.53;30.86;98092.63;10337009;28;20066;-70
2023/08/17 06:18:34;;;;;;;10.52;6.22;;;;;;;41.18;29.30;98100.31;10336593;28;20046;-70
2023/08/17 06:23:54;;;;;;;8.43;5.45;;;;;;;41.87;27.86;98090.19;10336249;28;20050;-69
2023/08/17 06:29:15;;;;;;;7.03;5.50;;;;;;;42.19;25.18;98081.19;10336038;28;20046;-70
2023/08/17 06:34:36;;;;;;;7.93;4.85;;;;;;;42.65;24.33;98063.19;10321414;28;20487;-70
2023/08/17 06:39:58;;;;;;;8.10;4.53;;;;;;;43.62;22.82;98059.69;10335220;28;20042;-70
2023/08/17 06:45:19;;;;;;;5.45;3.90;;;;;;;43.20;21.75;98059.31;10335317;28;20066;-70
2023/08/17 06:50:40;;;;;;;7.05;4.63;;;;;;;43.76;21.50;98060.38;10335643;28;20105;-70
2023/08/17 06:56:00;;;;;;;5.65;4.40;;;;;;;45.05;20.96;98053.53;10320384;28;20050;-71
2023/08/17 07:01:23;;;;;;;8.18;4.32;;;;;;;46.85;18.76;98062.94;10334038;28;20077;-73
2023/08/17 07:06:44;;;;;;;5.38;3.72;;;;;;;47.91;17.75;98065.94;10334571;28;20049;-72
2023/08/17 07:12:07;;;;;;;6.03;3.67;;;;;;;48.49;16.85;98074.59;10334746;28;20116;-71
2023/08/17 07:17:29;;;;;;;3.85;3.45;;;;;;;49.14;15.92;98069.22;10333320;28;20050;-71
2023/08/17 07:22:50;;;;;;;4.70;3.13;;;;;;;51.09;14.98;98066.09;10334184;28;20112;-71
2023/08/17 07:28:11;;;;;;;3.65;3.00;;;;;;;50.41;13.85;98062.59;10333308;28;20057;-72
2023/08/17 07:33:32;;;;;;;3.95;3.08;;;;;;;50.76;14.57;98068.38;10319404;28;20054;-70
2023/08/17 07:38:53;;;;;;;4.72;3.03;;;;;;;53.31;13.39;98065.97;10333016;28;20124;-72
2023/08/17 07:44:14;;;;;;;3.35;2.30;;;;;;;55.20;12.13;98065.34;10333544;28;20053;-72
2023/08/17 07:49:35;;;;;;;3.10;2.10;;;;;;;54.64;10.80;98064.00;10332428;28;20191;-72
2023/08/17 07:54:56;;;;;;;4.95;2.00;;;;;;;53.46;11.33;98062.22;10332411;28;20074;-71
2023/08/17 08:00:18;;;;;;;4.20;2.65;;;;;;;48.05;13.22;98064.78;10332226;28;20049;-73
2023/08/17 08:05:39;;;;;;;5.75;2.40;;;;;;;46.54;16.07;98060.84;10333063;28;20058;-73
2023/08/17 08:11:01;;;;;;;5.70;2.60;;;;;;;50.29;14.45;98064.38;10333026;28;20050;-71
2023/08/17 08:16:22;;;;;;;4.45;2.50;;;;;;;51.37;12.55;98069.34;10318494;28;20043;-73
2023/08/17 08:21:44;;;;;;;5.03;2.63;;;;;;;53.16;11.45;98057.09;10345698;28;20092;-72
2023/08/17 08:27:05;;;;;;;2.78;2.00;;;;;;;52.98;10.65;98056.66;10332646;28;20062;-71
2023/08/17 08:32:26;;;;;;;2.97;1.75;;;;;;;53.23;11.00;98048.91;10332736;28;20073;-72
2023/08/17 08:37:51;;;;;;;2.72;1.55;;;;;;;54.08;10.72;98057.25;10332683;28;20042;-72
2023/08/17 08:43:12;;;;;;;4.25;2.25;;;;;;;53.72;10.16;98055.78;10332753;28;20066;-72
2023/08/17 08:48:34;;;;;;;4.15;1.67;;;;;;;54.60;9.57;98053.16;10332151;28;20481;-72
2023/08/17 08:54:05;;;;;;;6.18;1.58;;;;;;;54.56;9.50;98051.31;10332315;28;20109;-73
2023/08/17 08:59:26;;;;;;;2.63;1.67;;;;;;;52.95;10.30;98046.53;10331050;28;20100;-72
2023/08/17 09:04:48;;;;;;;3.42;1.63;;;;;;;53.27;10.93;98026.94;10334128;28;20129;-72
2023/08/17 09:10:09;;;;;;;4.55;1.65;;;;;;;54.43;9.65;98036.31;10338045;28;20039;-71
2023/08/17 09:15:31;;;;;;;4.75;1.63;;;;;;;54.02;9.80;98028.03;10338737;28;20062;-73
2023/08/17 09:20:52;;;;;;;2.85;1.67;;;;;;;53.22;10.34;98034.94;10338733;28;20070;-71
2023/08/17 09:26:13;;;;;;;4.57;1.60;;;;;;;51.98;11.81;98030.09;10338427;28;20061;-71
2023/08/17 09:31:34;;;;;;;3.53;1.77;;;;;;;51.93;11.52;98023.88;10338389;28;20477;-73
2023/08/17 09:36:55;;;;;;;2.92;1.85;;;;;;;51.96;11.39;98027.34;10336953;28;20049;-71
2023/08/17 09:42:18;;;;;;;5.30;1.75;;;;;;;53.44;10.53;98012.44;10336850;28;20077;-73
2023/08/17 09:47:42;;;;;;;2.47;1.75;;;;;;;55.05;9.99;98013.13;10336974;28;20054;-72
2023/08/17 09:53:03;;;;;;;2.75;2.13;;;;;;;53.96;10.18;98005.50;10336301;28;20108;-72
2023/08/17 09:58:25;;;;;;;2.67;1.90;;;;;;;54.13;10.35;98004.44;10337174;28;20066;-72
2023/08/17 10:03:51;;;;;;;5.30;2.00;;;;;;;51.56;11.35;98002.91;10336835;28;20065;-72
2023/08/17 10:09:13;;;;;;;3.05;2.25;;;;;;;51.51;11.45;97998.94;10335982;28;20055;-71
2023/08/17 10:14:37;;;;;;;4.90;2.40;;;;;;;51.92;11.76;97995.00;10321395;28;20050;-72
2023/08/17 10:19:58;;;;;;;3.60;1.98;;;;;;;51.92;11.27;97995.00;10336259;28;20042;-73
2023/08/17 10:25:20;;;;;;;5.30;2.40;;;;;;;52.06;11.58;97990.63;10336169;28;20471;-71
2023/08/17 10:30:41;;;;;;;4.72;2.22;;;;;;;53.18;10.86;97977.13;10335704;28;20096;-72
2023/08/17 10:36:02;;;;;;;5.93;3.58;;;;;;;53.49;10.61;98000.09;10335798;28;20049;-72
2023/08/17 10:41:23;;;;;;;5.10;3.33;;;;;;;53.18;10.62;97983.06;10334512;28;20077;-71
2023/08/17 10:46:46;;;;;;;7.15;4.13;;;;;;;52.04;11.36;97981.91;10335481;28;20061;-71
2023/08/17 10:52:07;;;;;;;5.03;3.97;;;;;;;50.99;12.04;97975.59;10335945;28;20495;-72
2023/08/17 10:57:32;;;;;;;10.13;4.70;;;;;;;50.17;12.18;97972.75;10334969;28;20404;-72
2023/08/17 11:02:54;;;;;;;7.70;4.13;;;;;;;50.56;12.83;97970.63;10333774;28;20054;-72
2023/08/17 11:08:28;;;;;;;8.60;4.70;;;;;;;48.94;12.87;97980.47;10320313;28;20058;-72
2023/08/17 11:13:49;;;;;;;7.88;4.47;;;;;;;48.20;14.15;97972.63;10334617;28;20042;-72
2023/08/17 11:19:17;;;;;;;7.03;4.07;;;;;;;50.63;12.35;97962.56;10333585;28;20069;-71
2023/08/17 11:24:40;;;;;;;7.60;4.22;;;;;;;49.60;12.67;97960.03;10319686;28;20042;-72
2023/08/17 11:30:01;;;;;;;6.85;4.80;;;;;;;48.05;14.33;97952.38;10332913;28;20062;-72
2023/08/17 11:35:24;;;;;;;9.13;5.43;;;;;;;45.42;16.79;97962.66;10332783;28;20053;-72
2023/08/17 11:40:45;;;;;;;7.75;5.43;;;;;;;42.53;20.03;97946.56;10332874;28;20081;-72
2023/08/17 11:46:06;;;;;;;7.90;5.20;;;;;;;39.78;23.67;97957.91;10332817;28;20050;-71
2023/08/17 11:51:31;;;;;;;7.60;4.80;;;;;;;37.59;26.41;97939.34;10332124;28;20053;-70
2023/08/17 11:56:52;;;;;;;8.05;5.25;;;;;;;36.25;28.43;97947.59;10332330;28;20050;-71
2023/08/17 12:02:13;;;;;;;8.55;5.28;;;;;;;35.18;30.14;97951.47;10332091;28;20481;-70
2023/08/17 12:07:35;;;;;;;8.25;5.43;;;;;;;35.43;31.28;97952.25;10333095;28;20061;-71
2023/08/17 12:13:00;;;;;;;11.38;5.40;;;;;;;36.09;30.54;97943.00;10332021;28;20096;-71
2023/08/17 12:18:22;;;;;;;6.75;5.18;;;;;;;36.03;30.13;97937.41;10331842;28;20065;-70
2023/08/17 12:23:42;;;;;;;7.13;4.88;;;;;;;34.73;31.63;97938.16;10331909;28;20046;-71
2023/08/17 12:29:07;;;;;;;7.35;5.60;;;;;;;34.98;32.07;97920.84;10332872;28;20050;-71
2023/08/17 12:34:28;;;;;;;7.43;5.68;;;;;;;35.05;31.52;97910.50;10332908;28;20047;-71
2023/08/17 12:39:49;;;;;;;7.30;5.00;;;;;;;35.62;30.80;97903.06;10335111;28;20314;-71
2023/08/17 12:45:10;;;;;;;7.18;5.00;;;;;;;35.62;30.54;97902.38;10339327;28;20058;-71
2023/08/17 12:50:31;;;;;;;5.88;4.80;;;;;;;35.60;30.37;97887.91;10325432;28;20055;-71
2023/08/17 12:55:52;;;;;;;7.80;4.95;;;;;;;35.43;30.35;97879.69;10339846;28;20046;-71
2023/08/17 13:01:16;;;;;;;6.65;4.88;;;;;;;34.45;30.75;97878.72;10338470;28;20057;-71
2023/08/17 13:06:38;;;;;;;7.07;4.30;;;;;;;32.71;33.81;97895.50;10338422;28;20046;-70
2023/08/17 13:12:09;;;;;;;7.13;3.10;;;;;;;30.29;37.18;97904.41;10339212;28;20053;-68
2023/08/17 13:17:30;;;;;;;6.47;3.80;;;;;;;28.55;42.45;97941.75;10338285;28;20499;-67
2023/08/17 13:22:51;;;;;;;5.47;2.93;;;;;;;26.97;44.34;97928.41;10337836;28;20280;-67
2023/08/17 13:28:12;;;;;;;5.50;3.45;;;;;;;25.28;52.33;97938.28;10337646;28;20042;-67
2023/08/17 13:33:32;;;;;;;7.05;3.78;;;;;;;23.85;57.40;97954.56;10337295;28;20512;-67
2023/08/17 13:38:53;;;;;;;6.20;3.83;;;;;;;24.14;58.63;97947.97;10338290;28;20113;-67
2023/08/17 13:44:14;;;;;;;9.25;4.30;;;;;;;24.92;59.88;97935.66;10337874;28;20556;-67
2023/08/17 13:49:34;;;;;;;9.07;4.38;;;;;;;25.59;58.87;97901.50;10337792;28;20516;-65
2023/08/17 13:54:55;;;;;;;5.50;3.72;;;;;;;26.04;58.03;97896.94;10337237;28;20074;-66
2023/08/17 14:00:16;;;;;;;6.55;3.90;;;;;;;26.02;58.06;97874.06;10337202;28;20077;-68
2023/08/17 14:05:38;;;;;;;4.25;3.00;;;;;;;26.06;58.44;97876.25;10337303;28;20054;-67
2023/08/17 14:11:00;;;;;;;5.05;2.95;;;;;;;26.20;58.07;97882.06;10336943;28;20122;-67
2023/08/17 14:16:21;;;;;;;4.88;3.35;;;;;;;26.41;57.87;97875.09;10337040;28;20081;-66
2023/08/17 14:21:42;;;;;;;7.53;4.00;;;;;;;26.58;58.24;97860.91;10335501;28;20042;-67
2023/08/17 14:27:03;;;;;;;9.52;3.92;;;;;;;26.95;57.54;97867.53;10335398;28;20122;-67
2023/08/17 14:32:23;;;;;;;7.70;3.83;;;;;;;27.22;57.43;97877.72;10335004;28;20125;-68
2023/08/17 14:37:45;;;;;;;5.45;3.83;;;;;;;27.50;57.06;97877.06;10335917;28;20457;-68
2023/08/17 14:43:05;;;;;;;7.45;3.40;;;;;;;27.99;56.89;97874.31;10335383;28;20085;-67
2023/08/17 14:48:26;;;;;;;7.78;3.70;;;;;;;28.71;55.39;97863.50;10335328;28;20133;-67
2023/08/17 14:53:47;;;;;;;5.32;3.47;;;;;;;29.30;53.56;97849.63;10320700;28;20074;-67
2023/08/17 14:59:08;;;;;;;3.85;3.22;;;;;;;29.62;51.07;97848.75;10335091;28;20129;-68
2023/08/17 15:04:30;;;;;;;9.35;3.13;;;;;;;29.67;48.06;97852.31;10333226;28;20050;-70
2023/08/17 15:09:52;;;;;;;4.40;3.07;;;;;;;29.80;47.04;97844.31;10333609;28;20062;-69
2023/08/17 15:15:13;;;;;;;5.88;2.80;;;;;;;29.89;45.53;97840.66;10334402;28;20050;-69
2023/08/17 15:20:41;;;;;;;5.70;2.95;;;;;;;29.89;45.01;97843.53;10333606;28;20117;-69
2023/08/17 15:26:02;;;;;;;5.50;2.88;;;;;;;29.76;45.15;97835.72;10334086;28;20038;-69
2023/08/17 15:31:23;;;;;;;3.53;2.65;;;;;;;29.70;45.06;97835.75;10334038;28;20054;-69
2023/08/17 15:36:44;;;;;;;4.63;2.88;;;;;;;29.66;44.43;97825.00;10333630;28;20078;-70
2023/08/17 15:42:05;;;;;;;8.88;3.42;;;;;;;29.50;43.63;97825.81;10332562;28;20101;-70
2023/08/17 15:47:26;;;;;;;5.37;4.10;;;;;;;29.21;44.03;97822.38;10333321;28;20050;-69
2023/08/17 15:52:47;;;;;;;14.67;3.77;;;;;;;28.90;45.30;97826.84;10319004;28;20301;-68
2023/08/17 15:58:09;;;;;;;7.47;4.50;;;;;;;28.57;45.70;97826.94;10333586;28;20297;-70
2023/08/17 16:03:30;;;;;;;7.00;5.32;;;;;;;28.17;47.75;97822.66;10331956;28;20059;-69
2023/08/17 16:08:54;;;;;;;7.40;4.80;;;;;;;27.98;48.93;97835.56;10333107;28;20050;-69
2023/08/17 16:14:15;;;;;;;6.25;5.65;;;;;;;27.86;49.97;97833.41;10335899;28;20046;-69
2023/08/17 16:19:36;;;;;;;6.55;5.35;;;;;;;27.72;50.70;97844.19;10341067;28;20046;-69
2023/08/17 16:24:57;;;;;;;10.60;5.40;;;;;;;27.69;50.89;97834.13;10340632;28;20082;-68
2023/08/17 16:30:17;;;;;;;16.73;5.50;;;;;;;27.71;50.81;97832.00;10339841;28;20066;-69
2023/08/17 16:35:38;;;;;;;9.13;5.65;;;;;;;27.74;50.98;97829.84;10340479;28;20065;-69
2023/08/17 16:40:59;;;;;;;7.05;4.68;;;;;;;27.87;50.59;97819.78;10340463;28;20047;-68
2023/08/17 16:46:20;;;;;;;6.28;4.80;;;;;;;27.92;50.35;97836.31;10353204;28;20121;-69
2023/08/17 16:51:41;;;;;;;6.70;4.00;;;;;;;28.11;50.15;97842.75;10340248;28;20535;-69
2023/08/17 16:57:02;;;;;;;5.82;4.00;;;;;;;28.11;49.10;97851.34;10339116;28;20046;-69
2023/08/17 17:02:23;;;;;;;5.47;3.70;;;;;;;28.20;48.42;97855.66;10339618;28;20169;-69
2023/08/17 17:07:44;;;;;;;5.68;3.17;;;;;;;28.20;46.72;97855.66;10339542;28;20054;-69
2023/08/17 17:13:05;;;;;;;4.75;3.25;;;;;;;28.00;46.49;97857.81;10338527;28;20038;-68
2023/08/17 17:18:27;;;;;;;3.47;2.70;;;;;;;27.63;44.53;97855.59;10338229;28;20522;-68
2023/08/17 17:23:48;;;;;;;4.40;2.97;;;;;;;27.49;43.62;97858.44;10324066;28;20477;-69
2023/08/17 17:29:10;;;;;;;3.90;2.60;;;;;;;27.27;43.43;97864.81;10338697;28;20370;-69
2023/08/17 17:34:31;;;;;;;3.85;2.60;;;;;;;27.06;42.65;97869.75;10338580;28;20043;-68
2023/08/17 17:39:52;;;;;;;5.27;2.43;;;;;;;26.92;42.91;97868.94;10351099;28;20512;-69
2023/08/17 17:45:13;;;;;;;4.57;2.97;;;;;;;26.82;43.44;97878.19;10336997;28;20124;-68
2023/08/17 17:50:34;;;;;;;3.00;2.70;;;;;;;26.59;45.20;97890.97;10337889;28;20122;-68
2023/08/17 17:55:54;;;;;;;7.25;2.60;;;;;;;25.66;50.41;97906.56;10336679;28;20062;-68
2023/08/17 18:01:16;;;;;;;2.97;1.85;;;;;;;24.91;51.27;97917.09;10336782;28;20121;-69
2023/08/17 18:06:37;;;;;;;4.78;2.60;;;;;;;24.38;53.21;97916.28;10322676;28;20054;-68
2023/08/17 18:11:58;;;;;;;2.87;2.00;;;;;;;24.14;54.65;97941.56;10337360;28;20065;-68
2023/08/17 18:17:19;;;;;;;5.05;2.28;;;;;;;23.84;55.54;97936.03;10335848;28;20054;-69
2023/08/17 18:22:41;;;;;;;5.15;2.47;;;;;;;23.65;56.66;97944.25;10335837;28;20057;-67
2023/08/17 18:28:02;;;;;;;9.75;2.40;;;;;;;23.40;57.49;97934.47;10335502;28;20145;-67
2023/08/17 18:33:24;;;;;;;3.63;2.13;;;;;;;23.34;57.76;97945.00;10335315;28;20101;-65
2023/08/17 18:38:44;;;;;;;4.70;2.05;;;;;;;23.28;58.12;97953.44;10335421;28;20058;-66
2023/08/17 18:44:05;;;;;;;5.93;1.90;;;;;;;23.19;57.90;97948.97;10335888;28;20073;-66
2023/08/17 18:49:25;;;;;;;4.00;1.50;;;;;;;23.13;58.39;97943.84;10335767;28;20113;-66
2023/08/17 18:55:02;;;;;;;5.20;2.22;;;;;;;23.06;58.65;97931.63;10335180;28;20042;-66
2023/08/17 19:00:23;;;;;;;5.72;2.40;;;;;;;23.05;59.01;97921.63;10320845;28;20112;-66
2023/08/17 19:05:44;;;;;;;2.97;2.25;;;;;;;22.99;59.62;97930.06;10333968;28;20148;-67
2023/08/17 19:11:06;;;;;;;3.97;2.65;;;;;;;23.03;59.41;97929.41;10334756;28;20507;-67
2023/08/17 19:16:29;;;;;;;2.97;2.07;;;;;;;23.04;59.76;97911.66;10333928;28;20046;-66
2023/08/17 19:21:49;;;;;;;4.47;2.33;;;;;;;23.04;59.58;97914.50;10334544;28;20547;-67
2023/08/17 19:27:10;;;;;;;3.85;1.85;;;;;;;23.01;60.06;97927.25;10334223;28;20337;-67
2023/08/17 19:32:31;;;;;;;5.32;2.00;;;;;;;23.03;59.83;97918.03;10333891;28;20149;-67
2023/08/17 19:37:52;;;;;;;3.40;2.22;;;;;;;22.99;59.94;97918.66;10334069;28;20157;-67
2023/08/17 19:43:13;;;;;;;3.55;2.50;;;;;;;22.86;60.26;97911.25;10333100;28;20476;-67
2023/08/17 19:48:34;;;;;;;3.95;2.30;;;;;;;22.78;60.33;97916.75;10332569;28;20499;-67
2023/08/17 19:53:55;;;;;;;3.13;2.25;;;;;;;22.69;60.38;97924.41;10332725;28;20066;-66
2023/08/17 19:59:16;;;;;;;5.22;2.28;;;;;;;22.71;61.25;97932.25;10333505;28;20074;-67
2023/08/17 20:04:36;;;;;;;4.13;2.40;;;;;;;22.71;60.63;97935.09;10332755;28;20429;-66
2023/08/17 20:09:59;;;;;;;5.50;2.70;;;;;;;22.64;61.21;97948.44;10332169;28;20054;-66
2023/08/17 20:15:19;;;;;;;7.00;2.63;;;;;;;22.60;61.19;97939.09;10332400;28;20066;-67
2023/08/17 20:20:51;;;;;;;7.50;2.40;;;;;;;22.53;62.24;97947.50;10332000;28;20408;-67
2023/08/17 20:26:11;;;;;;;4.32;2.55;;;;;;;22.50;62.20;97945.28;10333336;28;20077;-66
2023/08/17 20:31:32;;;;;;;3.45;2.38;;;;;;;22.44;62.75;97947.97;10305026;28;20507;-66
2023/08/17 20:36:53;;;;;;;3.25;2.50;;;;;;;22.43;63.04;97955.06;10332641;28;20070;-67
2023/08/17 20:42:13;;;;;;;5.75;2.70;;;;;;;22.37;63.44;97964.16;10332718;28;20316;-67
2023/08/17 20:47:34;;;;;;;5.30;2.80;;;;;;;22.32;63.50;97967.59;10331323;28;20050;-66
2023/08/17 20:52:56;;;;;;;2.97;2.22;;;;;;;22.29;63.56;97978.16;10318029;28;20122;-66
2023/08/17 20:58:16;;;;;;;6.82;3.10;;;;;;;22.14;63.84;97973.53;10331609;28;20146;-67
2023/08/17 21:03:37;;;;;;;5.63;2.97;;;;;;;21.96;64.80;97977.31;10339853;28;20085;-66
2023/08/17 21:08:58;;;;;;;6.68;2.63;;;;;;;21.87;65.25;97972.81;10339513;28;20480;-66
2023/08/17 21:14:18;;;;;;;4.63;2.45;;;;;;;21.84;66.07;97979.13;10339212;28;20057;-67
2023/08/17 21:19:39;;;;;;;5.80;2.83;;;;;;;21.86;66.13;97973.47;10339223;28;20121;-67
2023/08/17 21:25:00;;;;;;;4.03;2.75;;;;;;;21.77;66.31;97966.84;10338764;28;20066;-67
2023/08/17 21:30:21;;;;;;;3.65;2.50;;;;;;;21.76;66.51;97965.41;10337774;28;20469;-67
2023/08/17 21:35:42;;;;;;;4.13;2.42;;;;;;;21.79;66.71;97971.88;10338780;28;20600;-67
2023/08/17 21:41:02;;;;;;;3.95;2.40;;;;;;;21.74;66.89;97954.00;10337464;28;20529;-67
2023/08/17 21:46:23;;;;;;;6.22;2.45;;;;;;;21.69;67.49;97958.84;10337359;28;20062;-67
2023/08/17 21:51:44;;;;;;;6.38;2.30;;;;;;;21.70;67.81;97965.25;10337931;28;20108;-67
2023/08/17 21:57:05;;;;;;;3.38;2.63;;;;;;;21.57;67.42;97969.88;10336713;28;20074;-66
2023/08/17 22:02:25;;;;;;;5.10;2.75;;;;;;;21.37;67.83;97960.78;10337481;28;20137;-66
2023/08/17 22:07:46;;;;;;;4.10;2.78;;;;;;;21.25;67.95;97949.06;10336374;28;20100;-66
2023/08/17 22:13:07;;;;;;;5.00;3.20;;;;;;;21.15;68.78;97955.88;10335891;28;20066;-66
2023/08/17 22:18:28;;;;;;;4.00;2.75;;;;;;;21.19;68.81;97952.44;10336043;28;20126;-66
2023/08/17 22:23:49;;;;;;;5.28;2.67;;;;;;;21.07;69.14;97952.09;10336916;28;20428;-66
2023/08/17 22:29:10;;;;;;;3.85;2.22;;;;;;;21.04;69.98;97947.75;10336364;28;20066;-66
2023/08/17 22:34:31;;;;;;;2.70;2.45;;;;;;;21.00;69.93;97958.97;10336516;28;20042;-66
2023/08/17 22:39:51;;;;;;;5.18;2.95;;;;;;;21.00;70.36;97964.63;10336177;28;20121;-67
2023/08/17 22:45:12;;;;;;;5.05;2.78;;;;;;;20.95;70.85;97963.06;10336022;28;20126;-67
2023/08/17 22:50:33;;;;;;;5.82;2.67;;;;;;;20.93;70.71;97960.16;10335713;28;20392;-65
2023/08/17 22:55:53;;;;;;;4.30;2.85;;;;;;;20.82;70.53;97962.69;10335686;28;20117;-66
2023/08/17 23:01:14;;;;;;;3.90;2.78;;;;;;;20.69;71.46;97971.50;10335472;28;20050;-67
2023/08/17 23:06:35;;;;;;;4.65;3.22;;;;;;;20.58;71.46;97954.16;10335037;28;20126;-66
2023/08/17 23:11:56;;;;;;;4.20;2.60;;;;;;;20.44;71.75;97962.19;10334959;28;20117;-66
2023/08/17 23:17:16;;;;;;;3.50;2.80;;;;;;;20.41;72.84;97959.94;10334738;28;20206;-67
2023/08/17 23:22:39;;;;;;;4.72;3.10;;;;;;;20.41;73.13;97965.63;10333342;28;20588;-66
2023/08/17 23:28:00;;;;;;;5.05;2.83;;;;;;;20.39;73.25;97965.56;10334268;28;20093;-66
2023/08/17 23:33:21;;;;;;;4.53;3.10;;;;;;;20.38;73.40;97961.28;10334117;28;20493;-66
2023/08/17 23:38:41;;;;;;;5.75;3.13;;;;;;;20.35;73.88;97963.28;10334190;28;20050;-66
2023/08/17 23:44:02;;;;;;;6.03;3.10;;;;;;;20.33;73.56;97959.69;10333721;28;20042;-66
2023/08/17 23:49:23;;;;;;;3.63;3.30;;;;;;;20.26;74.69;97950.97;10333680;28;20146;-66
2023/08/17 23:54:44;;;;;;;4.97;3.17;;;;;;;20.21;75.34;97971.34;10332443;28;20454;-67
